createdAt,value
2018-12-22T00:00:08.648Z,93.40
2018-12-22T00:02:41.820Z,93.40
2018-12-22T00:05:19.669Z,93.60
2018-12-22T00:07:57.948Z,93.80
2018-12-22T00:10:34.683Z,93.90
2018-12-22T00:13:08.037Z,94.10
2018-12-22T00:15:42.824Z,94.40
2018-12-22T00:18:22.512Z,94.40
2018-12-22T00:20:56.978Z,94.00
2018-12-22T00:23:32.966Z,94.00
2018-12-22T00:26:09.830Z,93.80
2018-12-22T00:28:51.525Z,93.80
2018-12-22T00:31:32.879Z,93.80
2018-12-22T00:34:11.034Z,93.80
2018-12-22T00:36:48.672Z,93.60
2018-12-22T00:39:26.116Z,93.70
2018-12-22T00:42:02.624Z,93.80
2018-12-22T00:44:44.507Z,93.60
2018-12-22T00:47:24.568Z,93.70
2018-12-22T00:50:27.114Z,93.60
2018-12-22T00:53:03.965Z,93.60
2018-12-22T00:55:50.114Z,93.40
2018-12-22T00:58:30.755Z,93.60
2018-12-22T01:01:04.557Z,93.80
2018-12-22T01:04:14.367Z,93.80
2018-12-22T01:07:04.998Z,93.60
2018-12-22T01:09:45.824Z,93.50
2018-12-22T01:12:22.886Z,93.40
2018-12-22T01:15:00.034Z,93.30
2018-12-22T01:17:37.426Z,93.40
2018-12-22T01:20:16.520Z,93.40
2018-12-22T01:22:59.532Z,93.80
2018-12-22T01:25:36.660Z,93.80
2018-12-22T01:28:15.615Z,93.40
2018-12-22T01:30:59.116Z,93.00
2018-12-22T01:33:36.955Z,93.00
2018-12-22T01:36:12.442Z,92.70
2018-12-22T01:38:50.578Z,92.70
2018-12-22T01:41:29.375Z,93.00
2018-12-22T01:44:07.273Z,93.00
2018-12-22T01:46:44.870Z,92.90
2018-12-22T01:49:22.940Z,92.80
2018-12-22T01:51:59.412Z,92.60
2018-12-22T01:54:39.452Z,92.50
2018-12-22T01:57:18.078Z,92.10
2018-12-22T02:00:00.294Z,92.10
2018-12-22T02:02:38.018Z,91.80
2018-12-22T02:05:19.406Z,91.90
2018-12-22T02:07:52.300Z,91.90
2018-12-22T02:10:35.885Z,92.10
2018-12-22T02:13:12.350Z,92.30
2018-12-22T02:15:59.501Z,92.30
2018-12-22T02:18:37.374Z,92.20
2018-12-22T02:21:29.337Z,91.80
2018-12-22T02:24:02.137Z,91.40
2018-12-22T02:26:44.253Z,91.00
2018-12-22T02:29:19.078Z,90.90
2018-12-22T02:31:56.924Z,90.80
2018-12-22T02:34:43.079Z,90.90
2018-12-22T02:37:19.536Z,90.90
2018-12-22T02:39:56.115Z,90.70
2018-12-22T02:42:36.129Z,90.30
2018-12-22T02:45:09.581Z,90.30
2018-12-22T02:47:45.115Z,90.30
2018-12-22T02:50:29.032Z,90.00
2018-12-22T02:53:10.447Z,89.80
2018-12-22T02:55:45.069Z,89.80
2018-12-22T02:58:21.565Z,89.20
2018-12-22T03:00:59.594Z,88.60
2018-12-22T03:03:47.004Z,88.10
2018-12-22T03:06:24.625Z,88.20
2018-12-22T03:09:10.301Z,88.10
2018-12-22T03:11:46.614Z,88.10
2018-12-22T03:14:21.904Z,87.60
2018-12-22T03:17:01.963Z,87.50
2018-12-22T03:19:36.749Z,87.40
2018-12-22T03:22:13.795Z,87.40
2018-12-22T03:24:48.628Z,87.10
2018-12-22T03:27:29.233Z,86.90
2018-12-22T03:30:06.258Z,86.70
2018-12-22T03:32:40.649Z,86.30
2018-12-22T03:35:16.392Z,86.20
2018-12-22T03:37:50.518Z,85.90
2018-12-22T03:40:26.154Z,86.10
2018-12-22T03:43:07.496Z,85.90
2018-12-22T03:45:46.970Z,85.60
2018-12-22T03:48:22.048Z,85.80
2018-12-22T03:50:59.147Z,85.80
2018-12-22T03:53:36.972Z,85.80
2018-12-22T03:56:14.500Z,85.50
2018-12-22T03:58:49.773Z,85.50
2018-12-22T04:01:24.418Z,85.30
2018-12-22T04:03:57.233Z,85.00
2018-12-22T04:06:30.698Z,85.10
2018-12-22T04:09:09.310Z,85.20
2018-12-22T04:11:44.619Z,85.20
2018-12-22T04:14:19.900Z,85.50
2018-12-22T04:16:55.687Z,85.40
2018-12-22T04:19:28.487Z,84.40
2018-12-22T04:22:01.230Z,84.70
2018-12-22T04:24:34.977Z,85.10
2018-12-22T04:27:10.785Z,85.20
2018-12-22T04:29:50.466Z,85.20
2018-12-22T04:32:32.434Z,84.80
2018-12-22T04:35:17.352Z,84.70
2018-12-22T04:37:53.767Z,84.50
2018-12-22T04:40:26.740Z,84.30
2018-12-22T04:43:00.755Z,84.30
2018-12-22T04:45:42.302Z,84.70
2018-12-22T04:48:16.976Z,84.70
2018-12-22T04:50:58.401Z,85.00
2018-12-22T04:53:37.926Z,85.00
2018-12-22T04:56:16.966Z,84.90
2018-12-22T04:58:52.636Z,84.60
2018-12-22T05:01:29.610Z,84.50
2018-12-22T05:04:06.694Z,84.70
2018-12-22T05:06:41.439Z,85.10
2018-12-22T05:09:18.103Z,85.40
2018-12-22T05:11:57.740Z,85.30
2018-12-22T05:14:36.197Z,85.00
2018-12-22T05:17:12.751Z,84.40
2018-12-22T05:19:51.201Z,84.70
2018-12-22T05:22:25.829Z,85.10
2018-12-22T05:25:02.595Z,84.10
2018-12-22T05:27:46.924Z,84.30
2018-12-22T05:45:52.304Z,84.90
2018-12-22T05:48:27.179Z,85.20
2018-12-22T05:51:07.025Z,85.40
2018-12-22T05:53:47.129Z,85.10
2018-12-22T05:56:27.051Z,85.40
2018-12-22T05:59:05.015Z,85.20
2018-12-22T06:01:41.740Z,85.40
2018-12-22T06:04:18.851Z,85.40
2018-12-22T06:06:57.510Z,84.30
2018-12-22T06:09:31.905Z,83.40
2018-12-22T06:12:05.281Z,83.50
2018-12-22T06:14:41.829Z,83.10
2018-12-22T06:17:17.354Z,83.70
2018-12-22T06:19:52.173Z,83.80
2018-12-22T06:22:29.153Z,83.70
2018-12-22T06:25:04.046Z,82.80
2018-12-22T06:27:42.145Z,82.70
2018-12-22T06:30:21.928Z,82.60
2018-12-22T06:32:57.775Z,82.70
2018-12-22T06:35:49.299Z,83.20
2018-12-22T06:38:27.672Z,83.10
2018-12-22T06:41:07.314Z,83.30
2018-12-22T06:43:55.177Z,83.10
2018-12-22T06:46:33.422Z,82.80
2018-12-22T06:49:14.383Z,82.00
2018-12-22T06:51:49.076Z,82.10
2018-12-22T06:54:35.940Z,82.60
2018-12-22T06:57:13.870Z,82.20
2018-12-22T07:02:47.939Z,81.60
2018-12-22T07:05:21.348Z,81.10
2018-12-22T07:08:06.262Z,81.00
2018-12-22T07:10:46.796Z,80.80
2018-12-22T07:13:20.772Z,80.70
2018-12-22T07:16:03.896Z,80.50
2018-12-22T07:18:48.089Z,81.20
2018-12-22T07:21:22.341Z,81.40
2018-12-22T07:23:55.791Z,81.30
2018-12-22T07:26:32.505Z,81.50
2018-12-22T07:29:13.508Z,81.70
2018-12-22T07:31:52.764Z,81.90
2018-12-22T07:34:27.567Z,82.10
2018-12-22T07:37:00.549Z,82.40
2018-12-22T07:39:39.985Z,82.50
2018-12-22T07:42:15.546Z,82.20
2018-12-22T07:44:53.312Z,82.40
2018-12-22T07:47:29.753Z,82.00
2018-12-22T07:50:03.953Z,82.20
2018-12-22T07:52:51.532Z,81.90
2018-12-22T07:55:25.152Z,82.00
2018-12-22T07:58:02.189Z,82.20
2018-12-22T08:00:39.463Z,81.90
2018-12-22T08:03:13.873Z,82.10
2018-12-22T08:05:57.580Z,82.00
2018-12-22T08:08:35.485Z,82.00
2018-12-22T08:11:11.874Z,82.30
2018-12-22T08:13:47.914Z,81.70
2018-12-22T08:16:35.095Z,81.80
2018-12-22T08:19:10.365Z,81.70
2018-12-22T08:21:46.224Z,81.40
2018-12-22T08:24:20.067Z,81.30
2018-12-22T08:26:55.565Z,81.10
2018-12-22T08:32:09.802Z,81.00
2018-12-22T08:34:47.370Z,81.10
2018-12-22T08:37:28.544Z,82.00
2018-12-22T08:40:09.145Z,82.90
2018-12-22T08:42:44.018Z,83.50
2018-12-22T08:48:07.679Z,83.90
2018-12-22T08:50:43.583Z,83.90
2018-12-22T08:53:17.068Z,83.60
2018-12-22T08:55:52.176Z,83.90
2018-12-22T08:58:30.250Z,83.50
2018-12-22T09:01:05.331Z,83.90
2018-12-22T09:03:42.443Z,84.30
2018-12-22T09:06:16.981Z,83.90
2018-12-22T09:08:53.883Z,83.40
2018-12-22T09:11:28.825Z,82.80
2018-12-22T09:14:14.354Z,82.20
2018-12-22T09:16:51.928Z,81.90
2018-12-22T09:19:40.170Z,82.00
2018-12-22T09:22:15.044Z,81.40
2018-12-22T09:24:49.942Z,81.40
2018-12-22T09:27:29.563Z,80.80
2018-12-22T09:30:07.472Z,80.80
2018-12-22T09:32:46.175Z,80.10
2018-12-22T09:38:17.391Z,80.70
2018-12-22T09:40:54.458Z,81.60
2018-12-22T09:43:29.521Z,81.80
2018-12-22T09:46:04.673Z,81.70
2018-12-22T09:48:40.854Z,82.00
2018-12-22T09:51:13.760Z,82.60
2018-12-22T09:53:46.558Z,84.20
2018-12-22T09:56:29.605Z,84.60
2018-12-22T09:59:02.713Z,83.70
2018-12-22T10:01:43.795Z,83.90
2018-12-22T10:04:20.454Z,83.70
2018-12-22T10:06:55.580Z,84.30
2018-12-22T10:09:33.494Z,84.20
2018-12-22T10:12:10.447Z,84.20
2018-12-22T10:14:45.025Z,83.90
2018-12-22T10:17:19.059Z,84.10
2018-12-22T10:19:55.639Z,83.60
2018-12-22T10:22:32.641Z,83.60
2018-12-22T10:25:09.705Z,84.40
2018-12-22T10:27:45.694Z,84.90
2018-12-22T10:30:22.738Z,85.00
2018-12-22T10:32:57.287Z,85.30
2018-12-22T10:35:33.330Z,84.20
2018-12-22T10:38:08.303Z,84.20
2018-12-22T10:43:39.129Z,83.60
2018-12-22T10:46:16.347Z,83.90
2018-12-22T10:48:56.045Z,84.70
2018-12-22T10:51:29.808Z,84.60
2018-12-22T10:54:03.704Z,85.30
2018-12-22T10:56:36.782Z,86.10
2018-12-22T10:59:12.718Z,86.60
2018-12-22T11:01:45.562Z,87.90
2018-12-22T11:04:22.825Z,88.90
2018-12-22T11:07:00.046Z,90.30
2018-12-22T11:09:37.447Z,91.30
2018-12-22T11:12:19.401Z,91.50
2018-12-22T11:14:54.074Z,91.50
2018-12-22T11:17:27.708Z,91.90
2018-12-22T11:20:01.448Z,92.00
2018-12-22T11:22:36.334Z,92.40
2018-12-22T11:28:10.103Z,92.30
2018-12-22T11:30:45.829Z,92.10
2018-12-22T11:33:20.333Z,91.30
2018-12-22T11:35:55.261Z,91.10
2018-12-22T11:38:32.756Z,91.40
2018-12-22T11:41:09.407Z,91.10
2018-12-22T11:43:45.783Z,91.00
2018-12-22T11:46:22.546Z,90.90
2018-12-22T11:49:01.052Z,91.30
2018-12-22T11:51:35.843Z,91.20
2018-12-22T11:54:10.714Z,91.20
2018-12-22T11:56:45.569Z,91.70
2018-12-22T11:59:18.549Z,91.70
2018-12-22T12:01:51.605Z,91.60
2018-12-22T12:04:24.879Z,92.10
2018-12-22T12:07:01.468Z,91.30
2018-12-22T12:09:39.062Z,91.20
2018-12-22T12:12:16.624Z,91.10
2018-12-22T12:14:53.402Z,89.70
2018-12-22T12:17:49.810Z,91.10
2018-12-22T12:20:25.112Z,91.20
2018-12-22T12:22:59.743Z,91.70
2018-12-22T12:25:33.780Z,91.30
2018-12-22T12:28:09.408Z,90.90
2018-12-22T12:30:43.712Z,90.20
2018-12-22T12:33:16.604Z,89.90
2018-12-22T12:35:58.726Z,91.00
2018-12-22T12:38:31.399Z,90.80
2018-12-22T12:41:05.466Z,90.80
2018-12-22T12:43:39.275Z,90.80
2018-12-22T12:46:14.852Z,91.40
2018-12-22T12:48:49.514Z,91.60
2018-12-22T12:51:27.153Z,91.00
2018-12-22T12:54:05.237Z,90.70
2018-12-22T12:56:49.196Z,90.50
2018-12-22T12:59:22.871Z,89.80
2018-12-22T13:02:00.932Z,89.30
2018-12-22T13:04:33.108Z,89.50
2018-12-22T13:07:07.662Z,89.80
2018-12-22T13:09:42.076Z,89.50
2018-12-22T13:14:57.746Z,89.50
2018-12-22T13:17:32.755Z,90.30
2018-12-22T13:20:09.078Z,90.00
2018-12-22T13:22:41.981Z,90.40
2018-12-22T13:25:16.122Z,90.10
2018-12-22T13:27:49.749Z,90.60
2018-12-22T13:30:24.317Z,90.50
2018-12-22T13:32:57.267Z,90.50
2018-12-22T13:35:36.333Z,90.60
2018-12-22T13:38:09.111Z,90.70
2018-12-22T13:40:43.499Z,90.80
2018-12-22T13:43:16.357Z,89.30
2018-12-22T13:45:50.102Z,89.10
2018-12-22T13:48:29.282Z,88.70
2018-12-22T13:51:02.504Z,88.50
2018-12-22T13:53:40.568Z,89.00
2018-12-22T13:56:15.028Z,88.70
2018-12-22T13:58:52.316Z,88.90
2018-12-22T14:01:26.812Z,88.50
2018-12-22T14:03:59.724Z,88.70
2018-12-22T14:06:37.698Z,88.20
2018-12-22T14:09:13.046Z,88.30
2018-12-22T14:11:49.066Z,88.20
2018-12-22T14:14:25.382Z,88.50
2018-12-22T14:17:10.346Z,88.30
2018-12-22T14:19:50.940Z,88.90
2018-12-22T14:22:24.386Z,89.20
2018-12-22T14:24:57.872Z,88.80
2018-12-22T14:27:32.784Z,88.90
2018-12-22T14:30:10.694Z,88.80
2018-12-22T14:32:45.175Z,88.90
2018-12-22T14:35:22.433Z,88.80
2018-12-22T14:37:59.312Z,88.40
2018-12-22T14:40:32.278Z,88.80
2018-12-22T14:43:06.237Z,88.20
2018-12-22T14:45:39.665Z,88.30
2018-12-22T14:48:13.176Z,87.10
2018-12-22T14:50:47.961Z,87.10
2018-12-22T14:53:22.870Z,87.00
2018-12-22T14:55:57.638Z,86.70
2018-12-22T14:58:36.204Z,87.20
2018-12-22T15:01:09.713Z,86.70
2018-12-22T15:03:44.396Z,86.70
2018-12-22T15:06:18.277Z,86.70
2018-12-22T15:08:53.038Z,86.70
2018-12-22T15:11:27.846Z,85.60
2018-12-22T15:14:03.376Z,85.50
2018-12-22T15:16:36.576Z,85.20
2018-12-22T15:19:16.108Z,85.90
2018-12-22T15:21:57.901Z,85.60
2018-12-22T15:24:38.147Z,85.70
2018-12-22T15:27:15.109Z,86.20
2018-12-22T15:29:52.276Z,85.90
2018-12-22T15:32:29.573Z,86.00
2018-12-22T15:35:06.932Z,86.20
2018-12-22T15:37:43.007Z,86.50
2018-12-22T15:40:18.733Z,86.80
2018-12-22T15:42:51.396Z,86.90
2018-12-22T15:45:24.458Z,87.20
2018-12-22T15:47:58.462Z,87.30
2018-12-22T15:50:39.744Z,87.20
2018-12-22T15:53:19.033Z,87.00
2018-12-22T15:55:54.543Z,86.60
2018-12-22T15:58:36.342Z,86.50
2018-12-22T16:01:11.626Z,86.80
2018-12-22T16:03:50.188Z,86.50
2018-12-22T16:06:24.973Z,86.70
2018-12-22T16:08:58.172Z,86.40
2018-12-22T16:11:34.860Z,86.50
2018-12-22T16:14:11.620Z,86.40
2018-12-22T16:16:52.915Z,86.60
2018-12-22T16:19:28.569Z,86.80
2018-12-22T16:22:08.389Z,86.80
2018-12-22T16:24:42.957Z,86.80
2018-12-22T16:27:22.337Z,86.80
2018-12-22T16:29:56.896Z,87.10
2018-12-22T16:32:31.855Z,86.80
2018-12-22T16:35:07.143Z,86.20
2018-12-22T16:37:41.651Z,86.10
2018-12-22T16:40:16.582Z,86.20
2018-12-22T16:42:52.316Z,86.40
2018-12-22T16:45:27.880Z,86.80
2018-12-22T16:48:01.118Z,86.90
2018-12-22T16:50:37.751Z,86.90
2018-12-22T16:53:11.065Z,87.10
2018-12-22T16:55:45.638Z,86.90
2018-12-22T16:58:22.800Z,86.50
2018-12-22T17:01:03.718Z,86.30
2018-12-22T17:03:57.126Z,85.70
2018-12-22T17:06:32.554Z,85.10
2018-12-22T17:09:07.294Z,85.80
2018-12-22T17:11:44.476Z,85.90
2018-12-22T17:14:25.885Z,86.10
2018-12-22T17:17:00.143Z,85.90
2018-12-22T17:19:36.392Z,86.20
2018-12-22T17:22:20.154Z,85.60
2018-12-22T17:25:07.047Z,85.70
2018-12-22T17:27:52.523Z,86.00
2018-12-22T17:30:30.096Z,85.80
2018-12-22T17:33:05.516Z,85.40
2018-12-22T17:35:41.230Z,85.10
2018-12-22T17:38:20.650Z,85.20
2018-12-22T17:40:53.774Z,85.50
2018-12-22T17:43:30.764Z,85.50
2018-12-22T17:46:08.452Z,85.40
2018-12-22T17:51:29.216Z,85.70
2018-12-22T17:54:06.522Z,86.00
2018-12-22T17:56:41.153Z,85.90
2018-12-22T17:59:16.385Z,85.70
2018-12-22T18:01:51.158Z,86.40
2018-12-22T18:04:27.007Z,86.90
2018-12-22T18:07:01.867Z,87.70
2018-12-22T18:09:37.768Z,88.00
2018-12-22T18:12:10.689Z,88.40
2018-12-22T18:14:43.954Z,88.60
2018-12-22T18:17:18.947Z,88.60
2018-12-22T18:19:54.067Z,88.00
2018-12-22T18:22:27.011Z,88.20
2018-12-22T18:25:01.228Z,88.30
2018-12-22T18:27:38.177Z,88.00
2018-12-22T18:30:16.050Z,88.30
2018-12-22T18:32:53.087Z,87.90
2018-12-22T18:35:27.456Z,87.20
2018-12-22T18:38:04.243Z,87.00
2018-12-22T18:40:38.595Z,86.70
2018-12-22T18:43:13.308Z,86.50
2018-12-22T18:45:48.803Z,86.10
2018-12-22T18:48:21.905Z,86.50
2018-12-22T18:50:55.159Z,86.40
2018-12-22T18:53:28.444Z,86.60
2018-12-22T18:56:03.338Z,86.50
2018-12-22T18:58:39.396Z,86.50
2018-12-22T19:01:18.285Z,85.80
2018-12-22T19:03:50.788Z,86.00
2018-12-22T19:06:23.758Z,85.30
2018-12-22T19:08:59.737Z,84.40
2018-12-22T19:11:34.143Z,84.50
2018-12-22T19:14:09.890Z,84.40
2018-12-22T19:16:47.176Z,83.70
2018-12-22T19:19:28.668Z,83.70
2018-12-22T19:22:04.814Z,83.70
2018-12-22T19:24:40.300Z,83.60
2018-12-22T19:27:16.038Z,83.30
2018-12-22T19:29:51.121Z,83.30
2018-12-22T19:32:33.222Z,83.40
2018-12-22T19:35:13.074Z,83.40
2018-12-22T19:37:52.824Z,83.30
2018-12-22T19:40:27.179Z,83.50
2018-12-22T19:46:02.363Z,83.20
2018-12-22T19:48:37.094Z,83.30
2018-12-22T19:51:14.496Z,83.40
2018-12-22T19:53:58.255Z,83.20
2018-12-22T19:56:33.551Z,83.20
2018-12-22T19:59:11.812Z,83.40
2018-12-22T20:01:54.226Z,83.10
2018-12-22T20:04:29.250Z,83.40
2018-12-22T20:07:06.374Z,83.20
2018-12-22T20:09:41.204Z,83.20
2018-12-22T20:12:15.958Z,83.20
2018-12-22T20:14:48.894Z,83.40
2018-12-22T20:17:24.807Z,83.50
2018-12-22T20:19:59.482Z,83.30
2018-12-22T20:22:34.805Z,83.50
2018-12-22T20:25:16.485Z,83.50
2018-12-22T20:27:51.782Z,83.10
2018-12-22T20:30:29.133Z,83.40
2018-12-22T20:33:06.498Z,84.00
2018-12-22T20:35:39.668Z,83.70
2018-12-22T20:38:13.001Z,83.90
2018-12-22T20:40:48.033Z,83.90
2018-12-22T20:43:22.828Z,84.00
2018-12-22T20:45:56.365Z,84.10
2018-12-22T20:48:31.461Z,83.90
2018-12-22T20:51:08.089Z,83.90
2018-12-22T20:53:45.537Z,84.20
2018-12-22T20:56:21.353Z,83.90
2018-12-22T20:58:56.630Z,84.00
2018-12-22T21:01:52.766Z,84.30
2018-12-22T21:04:31.100Z,84.20
2018-12-22T21:07:05.956Z,84.30
2018-12-22T21:09:40.737Z,84.40
2018-12-22T21:12:15.332Z,84.30
2018-12-22T21:14:48.229Z,84.50
2018-12-22T21:17:22.706Z,84.40
2018-12-22T21:20:01.746Z,84.50
2018-12-22T21:22:38.196Z,84.50
2018-12-22T21:25:12.437Z,84.40
2018-12-22T21:27:49.627Z,84.40
2018-12-22T21:30:24.592Z,84.20
2018-12-22T21:32:59.309Z,84.30
2018-12-22T21:35:34.565Z,84.50
2018-12-22T21:38:15.267Z,84.70
2018-12-22T21:40:50.104Z,85.00
2018-12-22T21:43:23.336Z,84.70
2018-12-22T21:45:56.300Z,84.90
2018-12-22T21:48:37.642Z,84.90
2018-12-22T21:51:16.389Z,84.70
2018-12-22T21:53:51.924Z,84.70
2018-12-22T21:56:29.245Z,84.80
2018-12-22T21:59:08.744Z,85.00
2018-12-22T22:01:43.931Z,85.00
2018-12-22T22:04:17.451Z,84.90
2018-12-22T22:06:50.230Z,84.90
2018-12-22T22:09:23.739Z,85.10
2018-12-22T22:11:58.247Z,85.20
2018-12-22T22:14:32.328Z,85.10
2018-12-22T22:17:08.282Z,85.20
2018-12-22T22:19:43.629Z,85.10
2018-12-22T22:22:17.652Z,85.00
2018-12-22T22:24:54.943Z,85.10
2018-12-22T22:27:29.870Z,85.30
2018-12-22T22:30:04.777Z,85.20
2018-12-22T22:32:39.059Z,85.10
2018-12-22T22:35:15.188Z,85.50
2018-12-22T22:37:49.735Z,85.40
2018-12-22T22:40:22.513Z,85.40
2018-12-22T22:42:55.762Z,85.60
2018-12-22T22:45:30.114Z,85.40
2018-12-22T22:48:05.501Z,85.60
2018-12-22T22:50:40.561Z,85.60
2018-12-22T22:53:15.785Z,85.70
2018-12-22T22:55:58.022Z,85.80
2018-12-22T22:58:31.663Z,85.40
2018-12-22T23:01:05.894Z,85.50
2018-12-22T23:03:38.833Z,85.60
2018-12-22T23:06:13.377Z,86.00
2018-12-22T23:08:48.069Z,86.20
2018-12-22T23:11:21.107Z,86.10
2018-12-22T23:13:54.785Z,86.00
2018-12-22T23:16:34.702Z,85.50
2018-12-22T23:19:10.667Z,85.50
2018-12-22T23:21:45.228Z,85.60
2018-12-22T23:24:24.236Z,85.60
2018-12-22T23:27:04.179Z,85.50
2018-12-22T23:29:39.159Z,85.40
2018-12-22T23:32:14.883Z,85.30
2018-12-22T23:34:50.440Z,85.40
2018-12-22T23:37:25.563Z,85.30
2018-12-22T23:40:01.434Z,85.40
2018-12-22T23:42:36.385Z,85.20
2018-12-22T23:45:12.274Z,85.10
2018-12-22T23:47:49.475Z,85.50
2018-12-22T23:53:06.794Z,85.10
2018-12-22T23:55:43.849Z,85.40
2018-12-22T23:58:18.716Z,85.50
